Terminal Aerodrome Forecast
Issued by NWS

Home | Current Version | Previous Version | Text Only | Print | Product List | Glossary On
Versions: 1 2 3 4 5 6 7 8 9 10 11 12 13 14 15 16 17 18
373
FTUS46 KSEW 112322
TAFBFI
TAF
KBFI 112322Z 1200/1224 VRB03KT P6SM -RA OVC050
     FM120500 13005KT 6SM -RA OVC040
     FM121200 17008KT 6SM -RA OVC030
     FM121600 18010KT P6SM -SHRA BKN028 OVC045
     FM122100 18010KT P6SM VCSH SCT030 BKN050=

USA.gov is the U.S. government's official web portal to all federal, state and local government web resources and services.